sensor_id;sensor_type;location;lat;lon;timestamp;pressure;altitude;pressure_sealevel;temperature
24201;BMP280;2801;50.972;7.856;2023-06-10T00:02:26;97484.56;;;15.03
24201;BMP280;2801;50.972;7.856;2023-06-10T00:04:54;97493.47;;;15.04
24201;BMP280;2801;50.972;7.856;2023-06-10T00:07:22;97486.75;;;14.98
24201;BMP280;2801;50.972;7.856;2023-06-10T00:09:49;97488.25;;;14.95
24201;BMP280;2801;50.972;7.856;2023-06-10T00:12:16;97487.09;;;14.96
24201;BMP280;2801;50.972;7.856;2023-06-10T00:14:45;97481.28;;;14.94
24201;BMP280;2801;50.972;7.856;2023-06-10T00:17:12;97491.03;;;14.99
24201;BMP280;2801;50.972;7.856;2023-06-10T00:19:39;97493.22;;;14.93
24201;BMP280;2801;50.972;7.856;2023-06-10T00:22:08;97483.88;;;14.91
24201;BMP280;2801;50.972;7.856;2023-06-10T00:24:36;97490.53;;;14.93
24201;BMP280;2801;50.972;7.856;2023-06-10T00:27:03;97473.28;;;14.82
24201;BMP280;2801;50.972;7.856;2023-06-10T00:29:30;97488.50;;;14.90
24201;BMP280;2801;50.972;7.856;2023-06-10T00:31:57;97482.25;;;14.86
24201;BMP280;2801;50.972;7.856;2023-06-10T00:34:25;97491.56;;;14.89
24201;BMP280;2801;50.972;7.856;2023-06-10T00:36:52;97495.31;;;14.84
24201;BMP280;2801;50.972;7.856;2023-06-10T00:39:18;97495.56;;;14.79
24201;BMP280;2801;50.972;7.856;2023-06-10T00:41:45;97489.66;;;14.73
24201;BMP280;2801;50.972;7.856;2023-06-10T00:44:13;97484.53;;;14.68
24201;BMP280;2801;50.972;7.856;2023-06-10T00:46:40;97493.50;;;14.73
24201;BMP280;2801;50.972;7.856;2023-06-10T00:49:07;97493.38;;;14.69
24201;BMP280;2801;50.972;7.856;2023-06-10T00:51:35;97492.16;;;14.66
24201;BMP280;2801;50.972;7.856;2023-06-10T00:54:04;97487.91;;;14.65
24201;BMP280;2801;50.972;7.856;2023-06-10T00:56:32;97499.06;;;14.64
24201;BMP280;2801;50.972;7.856;2023-06-10T00:59:01;97495.38;;;14.56
24201;BMP280;2801;50.972;7.856;2023-06-10T01:01:29;97484.41;;;14.49
24201;BMP280;2801;50.972;7.856;2023-06-10T01:03:56;97488.16;;;14.45
24201;BMP280;2801;50.972;7.856;2023-06-10T01:13:00;97506.16;;;14.41
24201;BMP280;2801;50.972;7.856;2023-06-10T01:15:31;97504.16;;;14.38
24201;BMP280;2801;50.972;7.856;2023-06-10T01:18:01;97507.19;;;14.36
24201;BMP280;2801;50.972;7.856;2023-06-10T01:20:31;97507.88;;;14.33
24201;BMP280;2801;50.972;7.856;2023-06-10T01:23:00;97502.75;;;14.28
24201;BMP280;2801;50.972;7.856;2023-06-10T01:25:29;97513.88;;;14.27
24201;BMP280;2801;50.972;7.856;2023-06-10T01:28:35;97513.00;;;14.23
24201;BMP280;2801;50.972;7.856;2023-06-10T01:31:40;97517.84;;;14.17
24201;BMP280;2801;50.972;7.856;2023-06-10T01:34:13;97512.69;;;14.12
24201;BMP280;2801;50.972;7.856;2023-06-10T01:36:44;97506.44;;;14.08
24201;BMP280;2801;50.972;7.856;2023-06-10T01:39:14;97504.41;;;14.05
24201;BMP280;2801;50.972;7.856;2023-06-10T01:41:42;97505.97;;;14.06
24201;BMP280;2801;50.972;7.856;2023-06-10T01:44:10;97508.59;;;14.03
24201;BMP280;2801;50.972;7.856;2023-06-10T01:46:37;97507.00;;;14.02
24201;BMP280;2801;50.972;7.856;2023-06-10T01:49:04;97503.34;;;13.94
24201;BMP280;2801;50.972;7.856;2023-06-10T01:51:31;97507.16;;;13.93
24201;BMP280;2801;50.972;7.856;2023-06-10T01:53:58;97507.38;;;13.88
24201;BMP280;2801;50.972;7.856;2023-06-10T01:56:25;97507.72;;;13.87
24201;BMP280;2801;50.972;7.856;2023-06-10T01:58:52;97506.84;;;13.83
24201;BMP280;2801;50.972;7.856;2023-06-10T02:01:21;97502.03;;;13.76
24201;BMP280;2801;50.972;7.856;2023-06-10T02:03:48;97503.53;;;13.74
24201;BMP280;2801;50.972;7.856;2023-06-10T02:06:15;97502.38;;;13.75
24201;BMP280;2801;50.972;7.856;2023-06-10T02:08:42;97501.16;;;13.72
24201;BMP280;2801;50.972;7.856;2023-06-10T02:11:09;97506.13;;;13.70
24201;BMP280;2801;50.972;7.856;2023-06-10T02:13:38;97508.28;;;13.65
24201;BMP280;2801;50.972;7.856;2023-06-10T02:16:05;97504.56;;;13.57
24201;BMP280;2801;50.972;7.856;2023-06-10T02:18:33;97509.63;;;13.59
24201;BMP280;2801;50.972;7.856;2023-06-10T02:21:00;97516.38;;;13.53
24201;BMP280;2801;50.972;7.856;2023-06-10T02:23:27;97513.56;;;13.49
24201;BMP280;2801;50.972;7.856;2023-06-10T02:25:54;97513.03;;;13.44
24201;BMP280;2801;50.972;7.856;2023-06-10T02:28:21;97516.72;;;13.39
24201;BMP280;2801;50.972;7.856;2023-06-10T02:30:48;97513.16;;;13.35
24201;BMP280;2801;50.972;7.856;2023-06-10T02:33:15;97509.69;;;13.35
24201;BMP280;2801;50.972;7.856;2023-06-10T02:35:44;97518.88;;;13.34
24201;BMP280;2801;50.972;7.856;2023-06-10T02:38:11;97514.19;;;13.31
24201;BMP280;2801;50.972;7.856;2023-06-10T02:40:38;97516.09;;;13.30
24201;BMP280;2801;50.972;7.856;2023-06-10T02:43:04;97519.09;;;13.29
24201;BMP280;2801;50.972;7.856;2023-06-10T02:45:31;97516.75;;;13.27
24201;BMP280;2801;50.972;7.856;2023-06-10T02:47:58;97518.88;;;13.22
24201;BMP280;2801;50.972;7.856;2023-06-10T02:50:25;97519.88;;;13.17
24201;BMP280;2801;50.972;7.856;2023-06-10T02:52:52;97519.78;;;13.14
24201;BMP280;2801;50.972;7.856;2023-06-10T02:55:19;97517.91;;;13.14
24201;BMP280;2801;50.972;7.856;2023-06-10T02:57:47;97522.03;;;13.12
24201;BMP280;2801;50.972;7.856;2023-06-10T03:00:14;97523.50;;;13.09
24201;BMP280;2801;50.972;7.856;2023-06-10T03:02:41;97517.53;;;13.04
24201;BMP280;2801;50.972;7.856;2023-06-10T03:05:08;97506.22;;;12.98
24201;BMP280;2801;50.972;7.856;2023-06-10T03:07:37;97516.78;;;13.03
24201;BMP280;2801;50.972;7.856;2023-06-10T03:10:06;97517.44;;;13.00
24201;BMP280;2801;50.972;7.856;2023-06-10T03:12:33;97518.56;;;12.99
24201;BMP280;2801;50.972;7.856;2023-06-10T03:15:00;97519.97;;;12.97
24201;BMP280;2801;50.972;7.856;2023-06-10T03:17:27;97510.34;;;12.96
24201;BMP280;2801;50.972;7.856;2023-06-10T03:19:54;97514.97;;;12.95
24201;BMP280;2801;50.972;7.856;2023-06-10T03:22:20;97514.41;;;12.90
24201;BMP280;2801;50.972;7.856;2023-06-10T03:24:48;97508.00;;;12.82
24201;BMP280;2801;50.972;7.856;2023-06-10T03:27:17;97514.16;;;12.83
24201;BMP280;2801;50.972;7.856;2023-06-10T03:29:44;97512.94;;;12.80
24201;BMP280;2801;50.972;7.856;2023-06-10T03:32:11;97514.84;;;12.80
24201;BMP280;2801;50.972;7.856;2023-06-10T03:34:40;97527.38;;;12.88
24201;BMP280;2801;50.972;7.856;2023-06-10T03:37:07;97523.13;;;12.87
24201;BMP280;2801;50.972;7.856;2023-06-10T03:39:34;97494.88;;;12.69
24201;BMP280;2801;50.972;7.856;2023-06-10T03:42:01;97526.72;;;12.91
24201;BMP280;2801;50.972;7.856;2023-06-10T03:44:28;97532.91;;;12.91
24201;BMP280;2801;50.972;7.856;2023-06-10T03:46:55;97526.06;;;12.94
24201;BMP280;2801;50.972;7.856;2023-06-10T03:49:23;97528.84;;;12.97
24201;BMP280;2801;50.972;7.856;2023-06-10T03:51:53;97528.84;;;12.97
24201;BMP280;2801;50.972;7.856;2023-06-10T03:54:21;97523.16;;;12.99
24201;BMP280;2801;50.972;7.856;2023-06-10T03:56:47;97530.78;;;13.09
24201;BMP280;2801;50.972;7.856;2023-06-10T03:59:17;97526.75;;;13.15
24201;BMP280;2801;50.972;7.856;2023-06-10T04:01:44;97535.50;;;13.24
24201;BMP280;2801;50.972;7.856;2023-06-10T04:04:14;97530.22;;;13.27
24201;BMP280;2801;50.972;7.856;2023-06-10T04:06:43;97520.47;;;13.35
24201;BMP280;2801;50.972;7.856;2023-06-10T04:09:15;97536.13;;;13.45
24201;BMP280;2801;50.972;7.856;2023-06-10T04:11:45;97528.19;;;13.48
24201;BMP280;2801;50.972;7.856;2023-06-10T04:14:13;97511.22;;;13.48
24201;BMP280;2801;50.972;7.856;2023-06-10T04:16:40;97530.94;;;13.64
24201;BMP280;2801;50.972;7.856;2023-06-10T04:19:09;97529.56;;;13.70
24201;BMP280;2801;50.972;7.856;2023-06-10T04:21:36;97525.50;;;13.76
24201;BMP280;2801;50.972;7.856;2023-06-10T04:24:03;97533.91;;;13.86
24201;BMP280;2801;50.972;7.856;2023-06-10T04:26:30;97540.72;;;13.96
24201;BMP280;2801;50.972;7.856;2023-06-10T04:28:57;97537.09;;;14.04
24201;BMP280;2801;50.972;7.856;2023-06-10T04:31:24;97537.72;;;14.13
24201;BMP280;2801;50.972;7.856;2023-06-10T04:33:51;97535.16;;;14.16
24201;BMP280;2801;50.972;7.856;2023-06-10T04:36:18;97545.09;;;14.28
24201;BMP280;2801;50.972;7.856;2023-06-10T04:38:45;97544.88;;;14.33
24201;BMP280;2801;50.972;7.856;2023-06-10T04:41:13;97536.25;;;14.43
24201;BMP280;2801;50.972;7.856;2023-06-10T04:43:40;97535.09;;;14.56
24201;BMP280;2801;50.972;7.856;2023-06-10T04:46:07;97543.00;;;14.64
24201;BMP280;2801;50.972;7.856;2023-06-10T04:48:35;97542.13;;;14.76
24201;BMP280;2801;50.972;7.856;2023-06-10T04:51:02;97514.97;;;14.69
24201;BMP280;2801;50.972;7.856;2023-06-10T04:53:29;97543.53;;;15.01
24201;BMP280;2801;50.972;7.856;2023-06-10T04:55:57;97548.56;;;15.18
24201;BMP280;2801;50.972;7.856;2023-06-10T04:58:24;97538.44;;;15.31
24201;BMP280;2801;50.972;7.856;2023-06-10T05:00:51;97539.19;;;15.62
24201;BMP280;2801;50.972;7.856;2023-06-10T05:03:18;97535.50;;;16.27
24201;BMP280;2801;50.972;7.856;2023-06-10T05:05:45;97525.97;;;16.97
24201;BMP280;2801;50.972;7.856;2023-06-10T05:08:12;97522.41;;;17.68
24201;BMP280;2801;50.972;7.856;2023-06-10T05:10:39;97524.38;;;18.34
24201;BMP280;2801;50.972;7.856;2023-06-10T05:13:06;97520.28;;;18.87
24201;BMP280;2801;50.972;7.856;2023-06-10T05:15:33;97518.03;;;19.43
24201;BMP280;2801;50.972;7.856;2023-06-10T05:18:00;97514.81;;;19.98
24201;BMP280;2801;50.972;7.856;2023-06-10T05:20:29;97506.06;;;20.40
24201;BMP280;2801;50.972;7.856;2023-06-10T05:22:56;97509.63;;;20.82
24201;BMP280;2801;50.972;7.856;2023-06-10T05:25:26;97518.63;;;21.21
24201;BMP280;2801;50.972;7.856;2023-06-10T05:27:53;97520.13;;;21.54
24201;BMP280;2801;50.972;7.856;2023-06-10T05:30:20;97506.44;;;21.82
24201;BMP280;2801;50.972;7.856;2023-06-10T05:32:48;97508.72;;;22.05
24201;BMP280;2801;50.972;7.856;2023-06-10T05:35:15;97507.06;;;22.28
24201;BMP280;2801;50.972;7.856;2023-06-10T05:37:42;97510.44;;;22.53
24201;BMP280;2801;50.972;7.856;2023-06-10T05:40:11;97504.81;;;22.78
24201;BMP280;2801;50.972;7.856;2023-06-10T05:42:38;97504.63;;;23.02
24201;BMP280;2801;50.972;7.856;2023-06-10T05:45:06;97495.03;;;23.31
24201;BMP280;2801;50.972;7.856;2023-06-10T05:47:34;97499.94;;;23.47
24201;BMP280;2801;50.972;7.856;2023-06-10T05:50:01;97500.81;;;23.40
24201;BMP280;2801;50.972;7.856;2023-06-10T05:52:29;97500.03;;;23.40
24201;BMP280;2801;50.972;7.856;2023-06-10T05:54:55;97505.13;;;23.41
24201;BMP280;2801;50.972;7.856;2023-06-10T05:57:22;97500.81;;;23.40
24201;BMP280;2801;50.972;7.856;2023-06-10T05:59:49;97504.25;;;23.48
24201;BMP280;2801;50.972;7.856;2023-06-10T06:02:16;97508.81;;;23.61
24201;BMP280;2801;50.972;7.856;2023-06-10T06:04:43;97503.56;;;23.77
24201;BMP280;2801;50.972;7.856;2023-06-10T06:07:10;97495.25;;;23.84
24201;BMP280;2801;50.972;7.856;2023-06-10T06:09:37;97486.97;;;23.91
24201;BMP280;2801;50.972;7.856;2023-06-10T06:12:05;97501.41;;;23.95
24201;BMP280;2801;50.972;7.856;2023-06-10T06:14:38;97501.69;;;24.04
24201;BMP280;2801;50.972;7.856;2023-06-10T06:17:08;97501.59;;;24.15
24201;BMP280;2801;50.972;7.856;2023-06-10T06:19:35;97499.09;;;24.24
24201;BMP280;2801;50.972;7.856;2023-06-10T06:22:02;97487.19;;;24.37
24201;BMP280;2801;50.972;7.856;2023-06-10T06:24:29;97496.69;;;24.56
24201;BMP280;2801;50.972;7.856;2023-06-10T06:26:56;97489.09;;;24.71
24201;BMP280;2801;50.972;7.856;2023-06-10T06:29:23;97490.53;;;24.79
24201;BMP280;2801;50.972;7.856;2023-06-10T06:31:50;97491.19;;;24.86
24201;BMP280;2801;50.972;7.856;2023-06-10T06:34:17;97492.16;;;24.99
24201;BMP280;2801;50.972;7.856;2023-06-10T06:36:44;97486.09;;;25.11
24201;BMP280;2801;50.972;7.856;2023-06-10T06:39:11;97485.25;;;25.14
24201;BMP280;2801;50.972;7.856;2023-06-10T06:41:38;97488.94;;;25.31
24201;BMP280;2801;50.972;7.856;2023-06-10T06:44:05;97487.16;;;25.63
24201;BMP280;2801;50.972;7.856;2023-06-10T06:46:32;97485.66;;;26.01
24201;BMP280;2801;50.972;7.856;2023-06-10T06:48:59;97471.84;;;26.40
24201;BMP280;2801;50.972;7.856;2023-06-10T06:51:26;97475.75;;;26.94
24201;BMP280;2801;50.972;7.856;2023-06-10T06:53:53;97482.78;;;27.43
24201;BMP280;2801;50.972;7.856;2023-06-10T06:56:23;97475.38;;;27.85
24201;BMP280;2801;50.972;7.856;2023-06-10T06:58:50;97476.59;;;28.25
24201;BMP280;2801;50.972;7.856;2023-06-10T07:01:17;97474.97;;;28.65
24201;BMP280;2801;50.972;7.856;2023-06-10T07:03:44;97466.28;;;29.04
24201;BMP280;2801;50.972;7.856;2023-06-10T07:06:12;97476.13;;;29.39
24201;BMP280;2801;50.972;7.856;2023-06-10T07:08:39;97476.09;;;29.64
24201;BMP280;2801;50.972;7.856;2023-06-10T07:11:06;97472.09;;;29.87
24201;BMP280;2801;50.972;7.856;2023-06-10T07:13:33;97480.16;;;30.15
24201;BMP280;2801;50.972;7.856;2023-06-10T07:16:00;97482.53;;;30.26
24201;BMP280;2801;50.972;7.856;2023-06-10T07:18:27;97465.84;;;30.38
24201;BMP280;2801;50.972;7.856;2023-06-10T07:20:54;97474.69;;;30.55
24201;BMP280;2801;50.972;7.856;2023-06-10T07:23:21;97479.66;;;30.60
24201;BMP280;2801;50.972;7.856;2023-06-10T07:25:48;97469.84;;;30.68
24201;BMP280;2801;50.972;7.856;2023-06-10T07:28:15;97480.34;;;30.82
24201;BMP280;2801;50.972;7.856;2023-06-10T07:30:42;97471.38;;;31.00
24201;BMP280;2801;50.972;7.856;2023-06-10T07:33:08;97475.72;;;31.19
24201;BMP280;2801;50.972;7.856;2023-06-10T07:35:37;97471.16;;;31.34
24201;BMP280;2801;50.972;7.856;2023-06-10T07:38:04;97474.09;;;31.39
24201;BMP280;2801;50.972;7.856;2023-06-10T07:40:31;97468.25;;;31.64
24201;BMP280;2801;50.972;7.856;2023-06-10T07:43:01;97468.09;;;32.04
24201;BMP280;2801;50.972;7.856;2023-06-10T07:45:28;97466.22;;;32.19
24201;BMP280;2801;50.972;7.856;2023-06-10T07:47:55;97467.75;;;32.29
24201;BMP280;2801;50.972;7.856;2023-06-10T07:50:22;97465.41;;;32.45
24201;BMP280;2801;50.972;7.856;2023-06-10T07:52:49;97466.41;;;32.66
24201;BMP280;2801;50.972;7.856;2023-06-10T07:55:16;97466.31;;;32.93
24201;BMP280;2801;50.972;7.856;2023-06-10T07:57:43;97465.72;;;32.89
24201;BMP280;2801;50.972;7.856;2023-06-10T08:00:10;97468.31;;;32.92
24201;BMP280;2801;50.972;7.856;2023-06-10T08:02:38;97469.28;;;33.13
24201;BMP280;2801;50.972;7.856;2023-06-10T08:05:05;97465.00;;;33.35
24201;BMP280;2801;50.972;7.856;2023-06-10T08:07:32;97461.59;;;33.55
24201;BMP280;2801;50.972;7.856;2023-06-10T08:10:00;97457.31;;;33.68
24201;BMP280;2801;50.972;7.856;2023-06-10T08:12:27;97465.38;;;33.90
24201;BMP280;2801;50.972;7.856;2023-06-10T08:14:54;97464.81;;;34.15
24201;BMP280;2801;50.972;7.856;2023-06-10T08:17:21;97458.88;;;34.37
24201;BMP280;2801;50.972;7.856;2023-06-10T08:19:48;97461.94;;;34.53
24201;BMP280;2801;50.972;7.856;2023-06-10T08:22:15;97456.16;;;34.71
24201;BMP280;2801;50.972;7.856;2023-06-10T08:24:42;97458.94;;;34.71
24201;BMP280;2801;50.972;7.856;2023-06-10T08:27:11;97457.81;;;34.63
24201;BMP280;2801;50.972;7.856;2023-06-10T08:29:39;97453.78;;;34.64
24201;BMP280;2801;50.972;7.856;2023-06-10T08:32:07;97459.09;;;34.33
24201;BMP280;2801;50.972;7.856;2023-06-10T08:34:34;97457.03;;;34.19
24201;BMP280;2801;50.972;7.856;2023-06-10T08:37:05;97457.72;;;34.29
24201;BMP280;2801;50.972;7.856;2023-06-10T08:39:32;97459.75;;;34.43
24201;BMP280;2801;50.972;7.856;2023-06-10T08:42:33;97457.19;;;34.39
24201;BMP280;2801;50.972;7.856;2023-06-10T08:45:02;97453.41;;;34.28
24201;BMP280;2801;50.972;7.856;2023-06-10T08:47:30;97458.97;;;34.13
24201;BMP280;2801;50.972;7.856;2023-06-10T08:50:03;97450.53;;;34.22
24201;BMP280;2801;50.972;7.856;2023-06-10T08:52:42;97453.19;;;34.17
24201;BMP280;2801;50.972;7.856;2023-06-10T08:55:23;97443.03;;;34.28
24201;BMP280;2801;50.972;7.856;2023-06-10T08:58:00;97448.88;;;34.30
24201;BMP280;2801;50.972;7.856;2023-06-10T09:00:28;97454.72;;;34.18
24201;BMP280;2801;50.972;7.856;2023-06-10T09:02:58;97453.28;;;33.93
24201;BMP280;2801;50.972;7.856;2023-06-10T09:05:33;97455.31;;;33.54
24201;BMP280;2801;50.972;7.856;2023-06-10T09:08:01;97449.41;;;33.38
24201;BMP280;2801;50.972;7.856;2023-06-10T09:10:29;97455.16;;;33.02
24201;BMP280;2801;50.972;7.856;2023-06-10T09:12:56;97453.56;;;32.77
24201;BMP280;2801;50.972;7.856;2023-06-10T09:15:24;97443.28;;;32.69
24201;BMP280;2801;50.972;7.856;2023-06-10T09:17:51;97465.56;;;32.42
24201;BMP280;2801;50.972;7.856;2023-06-10T09:20:18;97463.72;;;32.30
24201;BMP280;2801;50.972;7.856;2023-06-10T09:22:46;97454.19;;;32.31
24201;BMP280;2801;50.972;7.856;2023-06-10T09:25:13;97455.28;;;32.33
24201;BMP280;2801;50.972;7.856;2023-06-10T09:27:51;97450.63;;;32.21
24201;BMP280;2801;50.972;7.856;2023-06-10T09:30:30;97454.66;;;32.29
24201;BMP280;2801;50.972;7.856;2023-06-10T09:33:09;97460.63;;;32.46
24201;BMP280;2801;50.972;7.856;2023-06-10T09:35:45;97451.34;;;32.49
24201;BMP280;2801;50.972;7.856;2023-06-10T09:38:22;97450.03;;;32.26
24201;BMP280;2801;50.972;7.856;2023-06-10T09:40:52;97453.16;;;31.83
24201;BMP280;2801;50.972;7.856;2023-06-10T09:43:19;97450.69;;;31.49
24201;BMP280;2801;50.972;7.856;2023-06-10T09:45:50;97456.53;;;31.33
24201;BMP280;2801;50.972;7.856;2023-06-10T09:48:20;97466.94;;;30.71
24201;BMP280;2801;50.972;7.856;2023-06-10T09:50:48;97454.72;;;30.20
24201;BMP280;2801;50.972;7.856;2023-06-10T09:53:17;97462.53;;;29.79
24201;BMP280;2801;50.972;7.856;2023-06-10T09:55:44;97464.41;;;29.82
24201;BMP280;2801;50.972;7.856;2023-06-10T09:58:11;97461.00;;;29.78
24201;BMP280;2801;50.972;7.856;2023-06-10T10:00:38;97455.09;;;29.54
24201;BMP280;2801;50.972;7.856;2023-06-10T10:03:05;97464.00;;;29.37
24201;BMP280;2801;50.972;7.856;2023-06-10T10:05:33;97460.09;;;29.13
24201;BMP280;2801;50.972;7.856;2023-06-10T10:08:00;97459.53;;;28.80
24201;BMP280;2801;50.972;7.856;2023-06-10T10:10:27;97466.69;;;29.15
24201;BMP280;2801;50.972;7.856;2023-06-10T10:12:56;97463.81;;;29.65
24201;BMP280;2801;50.972;7.856;2023-06-10T10:15:28;97461.63;;;29.82
24201;BMP280;2801;50.972;7.856;2023-06-10T10:18:09;97454.16;;;30.13
24201;BMP280;2801;50.972;7.856;2023-06-10T10:20:50;97452.66;;;30.73
24201;BMP280;2801;50.972;7.856;2023-06-10T10:23:29;97449.50;;;30.92
24201;BMP280;2801;50.972;7.856;2023-06-10T10:26:04;97442.75;;;31.02
24201;BMP280;2801;50.972;7.856;2023-06-10T10:28:48;97441.03;;;30.96
24201;BMP280;2801;50.972;7.856;2023-06-10T10:31:21;97450.97;;;30.75
24201;BMP280;2801;50.972;7.856;2023-06-10T10:34:01;97454.59;;;30.63
24201;BMP280;2801;50.972;7.856;2023-06-10T10:36:29;97458.84;;;30.46
24201;BMP280;2801;50.972;7.856;2023-06-10T10:38:57;97456.16;;;30.12
24201;BMP280;2801;50.972;7.856;2023-06-10T10:41:26;97460.38;;;30.04
24201;BMP280;2801;50.972;7.856;2023-06-10T10:43:54;97464.09;;;30.23
24201;BMP280;2801;50.972;7.856;2023-06-10T10:46:22;97466.84;;;30.53
24201;BMP280;2801;50.972;7.856;2023-06-10T10:48:53;97459.63;;;30.86
24201;BMP280;2801;50.972;7.856;2023-06-10T10:51:23;97450.72;;;30.91
24201;BMP280;2801;50.972;7.856;2023-06-10T10:54:13;97456.22;;;30.73
24201;BMP280;2801;50.972;7.856;2023-06-10T10:57:20;97451.44;;;30.74
24201;BMP280;2801;50.972;7.856;2023-06-10T10:59:57;97452.72;;;30.91
24201;BMP280;2801;50.972;7.856;2023-06-10T11:02:45;97452.78;;;31.18
24201;BMP280;2801;50.972;7.856;2023-06-10T11:05:15;97451.09;;;31.21
24201;BMP280;2801;50.972;7.856;2023-06-10T11:07:54;97451.09;;;31.21
24201;BMP280;2801;50.972;7.856;2023-06-10T11:10:41;97439.84;;;31.15
24201;BMP280;2801;50.972;7.856;2023-06-10T11:13:15;97437.06;;;31.06
24201;BMP280;2801;50.972;7.856;2023-06-10T11:15:48;97439.81;;;30.97
24201;BMP280;2801;50.972;7.856;2023-06-10T11:18:34;97441.81;;;30.97
24201;BMP280;2801;50.972;7.856;2023-06-10T11:21:05;97440.56;;;30.88
24201;BMP280;2801;50.972;7.856;2023-06-10T11:23:34;97441.03;;;30.87
24201;BMP280;2801;50.972;7.856;2023-06-10T11:31:28;97435.34;;;30.20
24201;BMP280;2801;50.972;7.856;2023-06-10T11:34:04;97426.06;;;30.14
24201;BMP280;2801;50.972;7.856;2023-06-10T11:36:36;97420.78;;;30.29
24201;BMP280;2801;50.972;7.856;2023-06-10T11:39:05;97428.97;;;30.41
24201;BMP280;2801;50.972;7.856;2023-06-10T11:41:35;97425.78;;;30.52
24201;BMP280;2801;50.972;7.856;2023-06-10T11:44:13;97429.34;;;30.52
24201;BMP280;2801;50.972;7.856;2023-06-10T11:46:48;97431.03;;;30.19
24201;BMP280;2801;50.972;7.856;2023-06-10T11:49:16;97429.09;;;30.07
24201;BMP280;2801;50.972;7.856;2023-06-10T11:51:43;97430.56;;;30.21
24201;BMP280;2801;50.972;7.856;2023-06-10T11:54:16;97423.09;;;30.30
24201;BMP280;2801;50.972;7.856;2023-06-10T11:56:44;97422.66;;;30.10
24201;BMP280;2801;50.972;7.856;2023-06-10T11:59:11;97424.56;;;29.92
24201;BMP280;2801;50.972;7.856;2023-06-10T12:01:44;97439.34;;;29.76
24201;BMP280;2801;50.972;7.856;2023-06-10T12:04:14;97435.19;;;29.59
24201;BMP280;2801;50.972;7.856;2023-06-10T12:06:50;97425.31;;;29.71
24201;BMP280;2801;50.972;7.856;2023-06-10T12:09:29;97424.25;;;29.99
24201;BMP280;2801;50.972;7.856;2023-06-10T12:12:04;97421.97;;;30.19
24201;BMP280;2801;50.972;7.856;2023-06-10T12:14:58;97426.41;;;30.47
24201;BMP280;2801;50.972;7.856;2023-06-10T12:20:09;97408.25;;;30.76
24201;BMP280;2801;50.972;7.856;2023-06-10T12:22:43;97410.91;;;30.98
24201;BMP280;2801;50.972;7.856;2023-06-10T12:25:11;97408.94;;;31.08
24201;BMP280;2801;50.972;7.856;2023-06-10T12:27:50;97403.84;;;31.15
24201;BMP280;2801;50.972;7.856;2023-06-10T12:30:20;97416.47;;;31.16
24201;BMP280;2801;50.972;7.856;2023-06-10T12:32:48;97404.59;;;30.98
24201;BMP280;2801;50.972;7.856;2023-06-10T12:35:20;97410.91;;;30.98
24201;BMP280;2801;50.972;7.856;2023-06-10T12:38:00;97415.66;;;30.98
24201;BMP280;2801;50.972;7.856;2023-06-10T12:40:31;97411.69;;;31.17
24201;BMP280;2801;50.972;7.856;2023-06-10T12:42:59;97408.66;;;31.33
24201;BMP280;2801;50.972;7.856;2023-06-10T12:45:35;97411.59;;;31.38
24201;BMP280;2801;50.972;7.856;2023-06-10T12:48:23;97402.66;;;31.34
24201;BMP280;2801;50.972;7.856;2023-06-10T12:50:55;97395.56;;;31.42
24201;BMP280;2801;50.972;7.856;2023-06-10T12:53:23;97406.22;;;31.53
24201;BMP280;2801;50.972;7.856;2023-06-10T12:55:51;97407.16;;;31.41
24201;BMP280;2801;50.972;7.856;2023-06-10T12:58:22;97412.97;;;31.25
24201;BMP280;2801;50.972;7.856;2023-06-10T13:00:50;97403.25;;;31.20
24201;BMP280;2801;50.972;7.856;2023-06-10T13:03:20;97412.97;;;31.25
24201;BMP280;2801;50.972;7.856;2023-06-10T13:05:47;97414.19;;;31.33
24201;BMP280;2801;50.972;7.856;2023-06-10T13:08:15;97415.88;;;31.30
24201;BMP280;2801;50.972;7.856;2023-06-10T13:10:42;97413.91;;;31.31
24201;BMP280;2801;50.972;7.856;2023-06-10T13:13:09;97414.06;;;31.36
24201;BMP280;2801;50.972;7.856;2023-06-10T13:15:38;97400.81;;;31.40
24201;BMP280;2801;50.972;7.856;2023-06-10T13:18:10;97399.44;;;31.45
24201;BMP280;2801;50.972;7.856;2023-06-10T13:20:38;97403.28;;;31.65
24201;BMP280;2801;50.972;7.856;2023-06-10T13:23:05;97397.09;;;31.61
24201;BMP280;2801;50.972;7.856;2023-06-10T13:25:32;97392.81;;;31.60
24201;BMP280;2801;50.972;7.856;2023-06-10T13:27:59;97391.13;;;31.54
24201;BMP280;2801;50.972;7.856;2023-06-10T13:30:26;97380.97;;;31.60
24201;BMP280;2801;50.972;7.856;2023-06-10T13:32:53;97383.72;;;31.78
24201;BMP280;2801;50.972;7.856;2023-06-10T13:35:20;97374.34;;;31.84
24201;BMP280;2801;50.972;7.856;2023-06-10T13:37:47;97373.97;;;32.00
24201;BMP280;2801;50.972;7.856;2023-06-10T13:40:14;97383.69;;;32.05
24201;BMP280;2801;50.972;7.856;2023-06-10T13:42:42;97376.16;;;31.96
24201;BMP280;2801;50.972;7.856;2023-06-10T13:45:09;97375.78;;;32.12
24201;BMP280;2801;50.972;7.856;2023-06-10T13:47:37;97378.22;;;32.19
24201;BMP280;2801;50.972;7.856;2023-06-10T13:50:06;97364.50;;;32.16
24201;BMP280;2801;50.972;7.856;2023-06-10T13:52:33;97364.59;;;31.98
24201;BMP280;2801;50.972;7.856;2023-06-10T13:55:00;97379.41;;;31.59
24201;BMP280;2801;50.972;7.856;2023-06-10T13:57:27;97381.53;;;31.10
24201;BMP280;2801;50.972;7.856;2023-06-10T13:59:54;97384.97;;;30.65
24201;BMP280;2801;50.972;7.856;2023-06-10T14:02:23;97373.47;;;30.75
24201;BMP280;2801;50.972;7.856;2023-06-10T14:04:50;97385.97;;;30.89
24201;BMP280;2801;50.972;7.856;2023-06-10T14:07:17;97375.53;;;31.02
24201;BMP280;2801;50.972;7.856;2023-06-10T14:09:44;97383.22;;;31.16
24201;BMP280;2801;50.972;7.856;2023-06-10T14:12:11;97372.81;;;31.38
24201;BMP280;2801;50.972;7.856;2023-06-10T14:14:38;97373.88;;;31.50
24201;BMP280;2801;50.972;7.856;2023-06-10T14:17:05;97369.53;;;31.67
24201;BMP280;2801;50.972;7.856;2023-06-10T14:19:32;97370.78;;;31.84
24201;BMP280;2801;50.972;7.856;2023-06-10T14:21:59;97357.84;;;31.90
24201;BMP280;2801;50.972;7.856;2023-06-10T14:24:26;97357.34;;;31.91
24201;BMP280;2801;50.972;7.856;2023-06-10T14:26:53;97358.59;;;31.99
24201;BMP280;2801;50.972;7.856;2023-06-10T14:29:20;97355.91;;;32.14
24201;BMP280;2801;50.972;7.856;2023-06-10T14:31:47;97356.69;;;32.14
24201;BMP280;2801;50.972;7.856;2023-06-10T14:34:14;97357.28;;;32.18
24201;BMP280;2801;50.972;7.856;2023-06-10T14:36:41;97352.75;;;32.30
24201;BMP280;2801;50.972;7.856;2023-06-10T14:39:08;97349.97;;;32.30
24201;BMP280;2801;50.972;7.856;2023-06-10T14:41:35;97357.66;;;32.44
24201;BMP280;2801;50.972;7.856;2023-06-10T14:44:02;97354.69;;;32.47
24201;BMP280;2801;50.972;7.856;2023-06-10T14:46:29;97340.91;;;32.62
24201;BMP280;2801;50.972;7.856;2023-06-10T14:48:56;97343.97;;;32.64